createdAt,value
2022-09-18T00:00:30.858Z,16.60
2022-09-18T00:01:30.879Z,15.70
2022-09-18T00:02:30.872Z,15.90
2022-09-18T00:03:30.819Z,15.70
2022-09-18T00:04:30.805Z,15.70
2022-09-18T00:05:30.789Z,15.70
2022-09-18T00:06:30.768Z,16.30
2022-09-18T00:07:30.760Z,15.90
2022-09-18T00:08:30.769Z,15.70
2022-09-18T00:09:30.739Z,16.10
2022-09-18T00:10:30.730Z,16.70
2022-09-18T00:11:30.710Z,15.80
2022-09-18T00:12:30.719Z,15.80
2022-09-18T00:13:30.671Z,15.60
2022-09-18T00:14:30.708Z,15.70
2022-09-18T00:15:30.669Z,15.30
2022-09-18T00:16:30.676Z,16.30
2022-09-18T00:17:30.630Z,15.70
2022-09-18T00:18:30.623Z,15.60
2022-09-18T00:19:30.608Z,15.70
2022-09-18T00:20:30.625Z,16.10
2022-09-18T00:21:30.593Z,15.90
2022-09-18T00:22:30.568Z,16.00
2022-09-18T00:23:30.629Z,15.90
2022-09-18T00:24:30.541Z,16.10
2022-09-18T00:25:30.548Z,15.80
2022-09-18T00:26:30.511Z,16.00
2022-09-18T00:27:30.500Z,15.80
2022-09-18T00:28:30.492Z,16.70
2022-09-18T00:29:30.481Z,15.90
2022-09-18T00:30:30.460Z,15.90
2022-09-18T00:31:30.577Z,16.40
2022-09-18T00:32:30.439Z,16.20
2022-09-18T00:33:30.420Z,16.30
2022-09-18T00:34:30.412Z,16.10
2022-09-18T00:35:30.402Z,15.70
2022-09-18T00:36:30.396Z,16.00
2022-09-18T00:37:30.384Z,16.00
2022-09-18T00:38:30.383Z,17.40
2022-09-18T00:39:30.349Z,17.40
2022-09-18T00:40:30.446Z,16.60
2022-09-18T00:41:30.332Z,16.20
2022-09-18T00:42:30.330Z,17.00
2022-09-18T00:43:30.291Z,16.50
2022-09-18T00:44:30.280Z,16.70
2022-09-18T00:45:30.280Z,16.70
2022-09-18T00:46:37.338Z,17.00
2022-09-18T00:47:30.242Z,17.40
2022-09-18T00:48:30.254Z,17.40
2022-09-18T00:49:30.237Z,17.40
2022-09-18T00:50:30.237Z,17.20
2022-09-18T00:51:30.215Z,17.20
2022-09-18T00:52:30.216Z,16.80
2022-09-18T00:53:30.195Z,16.80
2022-09-18T00:54:30.166Z,17.20
2022-09-18T00:55:30.167Z,17.00
2022-09-18T00:56:30.185Z,16.80
2022-09-18T00:57:30.114Z,17.00
2022-09-18T00:58:30.114Z,16.80
2022-09-18T00:59:30.093Z,17.40
2022-09-18T01:00:30.097Z,17.10
2022-09-18T01:01:30.127Z,16.90
2022-09-18T01:02:30.150Z,16.90
2022-09-18T01:03:30.035Z,17.60
2022-09-18T01:04:30.035Z,17.20
2022-09-18T01:05:30.024Z,16.90
2022-09-18T01:06:30.019Z,17.10
2022-09-18T01:07:29.997Z,17.20
2022-09-18T01:08:30.007Z,17.70
2022-09-18T01:09:29.964Z,17.50
2022-09-18T01:10:29.954Z,17.40
2022-09-18T01:11:29.943Z,17.20
2022-09-18T01:12:29.929Z,17.50
2022-09-18T01:13:29.916Z,17.50
2022-09-18T01:14:29.927Z,17.10
2022-09-18T01:15:29.896Z,17.50
2022-09-18T01:16:29.949Z,17.50
2022-09-18T01:17:29.904Z,17.50
2022-09-18T01:18:29.859Z,16.90
2022-09-18T01:19:29.857Z,17.50
2022-09-18T01:20:29.837Z,17.10
2022-09-18T01:21:29.807Z,17.50
2022-09-18T01:22:29.795Z,17.60
2022-09-18T01:23:29.789Z,17.70
2022-09-18T01:24:29.774Z,17.50
2022-09-18T01:25:29.773Z,17.70
2022-09-18T01:26:29.766Z,18.00
2022-09-18T01:27:29.729Z,17.50
2022-09-18T01:28:29.763Z,18.20
2022-09-18T01:29:29.719Z,18.80
2022-09-18T01:30:29.758Z,18.40
2022-09-18T01:31:29.736Z,18.00
2022-09-18T01:32:29.677Z,17.80
2022-09-18T01:33:29.672Z,17.90
2022-09-18T01:34:29.657Z,18.10
2022-09-18T01:35:41.093Z,17.90
2022-09-18T01:36:30.660Z,18.00
2022-09-18T01:37:29.597Z,18.80
2022-09-18T01:38:29.615Z,18.10
2022-09-18T01:39:29.582Z,17.90
2022-09-18T01:40:29.621Z,18.60
2022-09-18T01:41:29.564Z,18.50
2022-09-18T01:42:29.547Z,18.20
2022-09-18T01:43:29.537Z,18.90
2022-09-18T01:44:29.523Z,18.20
2022-09-18T01:45:29.513Z,17.50
2022-09-18T01:46:29.574Z,18.60
2022-09-18T01:47:29.508Z,18.70
2022-09-18T01:48:29.519Z,18.30
2022-09-18T01:49:29.456Z,17.60
2022-09-18T01:50:29.447Z,17.80
2022-09-18T01:51:29.439Z,18.10
2022-09-18T01:52:29.449Z,18.30
2022-09-18T01:53:29.404Z,19.00
2022-09-18T01:54:29.397Z,18.70
2022-09-18T01:55:29.377Z,18.00
2022-09-18T01:56:29.397Z,17.30
2022-09-18T01:57:29.354Z,18.30
2022-09-18T01:58:29.356Z,17.90
2022-09-18T01:59:29.317Z,17.60
2022-09-18T02:00:29.325Z,17.90
2022-09-18T02:01:29.388Z,17.90
2022-09-18T02:02:29.384Z,18.40
2022-09-18T02:03:29.277Z,17.60
2022-09-18T02:04:29.298Z,17.90
2022-09-18T02:05:29.249Z,17.40
2022-09-18T02:06:29.238Z,17.20
2022-09-18T02:07:29.238Z,17.20
2022-09-18T02:08:29.209Z,17.80
2022-09-18T02:09:29.205Z,18.10
2022-09-18T02:10:29.188Z,18.20
2022-09-18T02:11:29.170Z,17.90
2022-09-18T02:12:29.173Z,17.90
2022-09-18T02:13:29.160Z,18.10
2022-09-18T02:14:29.170Z,17.70
2022-09-18T02:15:29.128Z,17.70
2022-09-18T02:16:29.163Z,17.80
2022-09-18T02:17:29.107Z,18.50
2022-09-18T02:18:29.088Z,19.00
2022-09-18T02:19:29.070Z,17.70
2022-09-18T02:20:29.061Z,18.40
2022-09-18T02:21:29.044Z,18.30
2022-09-18T02:22:29.036Z,18.20
2022-09-18T02:23:29.018Z,18.30
2022-09-18T02:24:29.011Z,18.40
2022-09-18T02:25:29.001Z,17.80
2022-09-18T02:26:28.981Z,18.10
2022-09-18T02:27:28.989Z,17.90
2022-09-18T02:28:28.994Z,18.30
2022-09-18T02:29:28.990Z,18.10
2022-09-18T02:30:28.951Z,18.10
2022-09-18T02:31:28.970Z,19.10
2022-09-18T02:32:28.931Z,17.50
2022-09-18T02:33:28.888Z,17.90
2022-09-18T02:34:28.907Z,17.70
2022-09-18T02:35:28.859Z,16.90
2022-09-18T02:36:28.847Z,17.10
2022-09-18T02:37:28.830Z,17.20
2022-09-18T02:38:28.830Z,17.70
2022-09-18T02:39:28.810Z,17.00
2022-09-18T02:40:28.889Z,17.40
2022-09-18T02:41:28.815Z,18.20
2022-09-18T02:42:28.779Z,17.20
2022-09-18T02:43:28.769Z,17.00
2022-09-18T02:44:28.771Z,17.10
2022-09-18T02:45:28.739Z,17.50
2022-09-18T02:46:28.767Z,17.50
2022-09-18T02:47:28.721Z,17.50
2022-09-18T02:48:28.691Z,17.30
2022-09-18T02:49:29.367Z,18.50
2022-09-18T02:50:28.691Z,17.70
2022-09-18T02:51:28.668Z,17.80
2022-09-18T02:52:28.655Z,17.50
2022-09-18T02:53:28.628Z,17.70
2022-09-18T02:54:28.638Z,17.70
2022-09-18T02:55:28.599Z,17.80
2022-09-18T02:56:28.609Z,17.30
2022-09-18T02:57:28.590Z,17.90
2022-09-18T02:58:28.569Z,17.70
2022-09-18T02:59:28.550Z,16.90
2022-09-18T03:00:28.571Z,18.20
2022-09-18T03:01:28.618Z,17.50
2022-09-18T03:02:28.693Z,17.50
2022-09-18T03:03:28.502Z,18.00
2022-09-18T03:04:28.510Z,17.50
2022-09-18T03:05:28.478Z,18.30
2022-09-18T03:06:28.485Z,18.00
2022-09-18T03:07:28.466Z,18.20
2022-09-18T03:08:28.439Z,17.20
2022-09-18T03:09:28.429Z,17.40
2022-09-18T03:10:28.418Z,17.60
2022-09-18T03:11:28.429Z,17.70
2022-09-18T03:12:28.399Z,17.50
2022-09-18T03:13:28.371Z,17.10
2022-09-18T03:14:28.371Z,18.00
2022-09-18T03:15:28.341Z,17.90
2022-09-18T03:16:28.399Z,17.90
2022-09-18T03:17:28.340Z,18.20
2022-09-18T03:18:28.318Z,17.90
2022-09-18T03:19:28.297Z,18.50
2022-09-18T03:20:28.281Z,18.30
2022-09-18T03:21:28.289Z,17.60
2022-09-18T03:22:28.271Z,18.10
2022-09-18T03:23:28.260Z,17.50
2022-09-18T03:24:28.230Z,17.60
2022-09-18T03:25:28.233Z,19.10
2022-09-18T03:26:28.233Z,17.80
2022-09-18T03:27:28.212Z,17.40
2022-09-18T03:28:28.182Z,17.30
2022-09-18T03:29:28.180Z,17.50
2022-09-18T03:30:28.160Z,18.00
2022-09-18T03:31:28.230Z,18.00
2022-09-18T03:32:28.150Z,18.20
2022-09-18T03:33:28.120Z,17.40
2022-09-18T03:34:28.126Z,17.50
2022-09-18T03:35:28.092Z,17.80
2022-09-18T03:36:28.097Z,17.90
2022-09-18T03:37:28.097Z,18.10
2022-09-18T03:38:28.053Z,17.60
2022-09-18T03:39:28.052Z,18.70
2022-09-18T03:40:28.094Z,17.60
2022-09-18T03:41:28.034Z,17.50
2022-09-18T03:42:28.002Z,17.50
2022-09-18T03:43:28.003Z,17.40
2022-09-18T03:44:27.977Z,18.20
2022-09-18T03:45:27.972Z,18.00
2022-09-18T03:46:28.025Z,17.70
2022-09-18T03:47:28.841Z,18.30
2022-09-18T03:48:27.919Z,19.50
2022-09-18T03:49:27.909Z,17.70
2022-09-18T03:50:27.891Z,18.90
2022-09-18T03:51:27.880Z,18.70
2022-09-18T03:52:27.900Z,17.70
2022-09-18T03:53:27.894Z,18.30
2022-09-18T03:54:27.853Z,18.50
2022-09-18T03:55:27.852Z,18.40
2022-09-18T03:56:27.823Z,18.50
2022-09-18T03:57:27.831Z,18.00
2022-09-18T03:58:27.793Z,18.00
2022-09-18T03:59:27.813Z,17.60
2022-09-18T04:00:27.782Z,17.50
2022-09-18T04:01:27.801Z,18.30
2022-09-18T04:02:27.798Z,18.00
2022-09-18T04:03:27.726Z,17.80
2022-09-18T04:04:27.720Z,19.00
2022-09-18T04:05:27.698Z,17.70
2022-09-18T04:06:27.683Z,17.80
2022-09-18T04:07:27.718Z,18.70
2022-09-18T04:08:27.662Z,17.90
2022-09-18T04:09:27.670Z,18.00
2022-09-18T04:10:27.645Z,17.40
2022-09-18T04:11:27.633Z,17.70
2022-09-18T04:12:27.653Z,17.90
2022-09-18T04:13:27.630Z,17.80
2022-09-18T04:14:30.086Z,17.60
2022-09-18T04:15:27.583Z,17.80
2022-09-18T04:16:27.621Z,18.30
2022-09-18T04:17:27.571Z,17.90
2022-09-18T04:18:27.532Z,17.20
2022-09-18T04:19:27.522Z,17.30
2022-09-18T04:20:27.522Z,17.70
2022-09-18T04:21:27.520Z,17.10
2022-09-18T04:22:27.504Z,18.00
2022-09-18T04:23:27.492Z,18.60
2022-09-18T04:24:27.653Z,17.50
2022-09-18T04:25:27.452Z,17.90
2022-09-18T04:26:27.462Z,17.50
2022-09-18T04:27:27.431Z,17.50
2022-09-18T04:28:27.411Z,17.10
2022-09-18T04:29:27.402Z,17.30
2022-09-18T04:30:27.393Z,17.30
2022-09-18T04:31:27.451Z,19.20
2022-09-18T04:32:27.352Z,18.80
2022-09-18T04:33:27.379Z,18.30
2022-09-18T04:34:27.334Z,18.00
2022-09-18T04:35:27.323Z,16.90
2022-09-18T04:36:27.315Z,16.60
2022-09-18T04:37:27.313Z,17.20
2022-09-18T04:38:27.294Z,17.00
2022-09-18T04:39:27.274Z,17.60
2022-09-18T04:40:27.287Z,17.70
2022-09-18T04:41:27.242Z,16.90
2022-09-18T04:42:27.232Z,17.80
2022-09-18T04:43:27.262Z,17.40
2022-09-18T04:44:27.242Z,18.40
2022-09-18T04:45:27.206Z,17.10
2022-09-18T04:46:27.283Z,18.00
2022-09-18T04:47:27.162Z,17.10
2022-09-18T04:48:27.151Z,17.00
2022-09-18T04:49:27.214Z,17.40
2022-09-18T04:50:27.134Z,17.30
2022-09-18T04:51:27.115Z,18.10
2022-09-18T04:52:27.103Z,17.80
2022-09-18T04:53:27.094Z,17.30
2022-09-18T04:54:27.116Z,18.30
2022-09-18T04:55:27.094Z,16.10
2022-09-18T04:56:27.058Z,16.50
2022-09-18T04:57:27.033Z,16.80
2022-09-18T04:58:27.024Z,15.90
2022-09-18T04:59:27.063Z,17.00
2022-09-18T05:00:27.044Z,17.70
2022-09-18T05:01:26.992Z,17.50
2022-09-18T05:02:27.054Z,16.50
2022-09-18T05:03:26.994Z,16.50
2022-09-18T05:04:26.955Z,16.10
2022-09-18T05:05:26.945Z,16.50
2022-09-18T05:06:26.927Z,17.00
2022-09-18T05:07:26.942Z,17.60
2022-09-18T05:08:26.924Z,16.40
2022-09-18T05:09:26.886Z,16.10
2022-09-18T05:10:26.874Z,16.90
2022-09-18T05:11:28.254Z,16.60
2022-09-18T05:12:26.851Z,17.50
2022-09-18T05:13:26.852Z,17.10
2022-09-18T05:14:26.815Z,17.30
2022-09-18T05:15:26.802Z,17.00
2022-09-18T05:16:26.852Z,17.70
2022-09-18T05:17:26.794Z,17.10
2022-09-18T05:18:26.789Z,18.50
2022-09-18T05:19:26.753Z,16.90
2022-09-18T05:20:26.737Z,17.10
2022-09-18T05:21:26.736Z,17.20
2022-09-18T05:22:26.715Z,16.90
2022-09-18T05:23:26.744Z,16.70
2022-09-18T05:24:26.698Z,17.00
2022-09-18T05:25:26.698Z,16.90
2022-09-18T05:26:26.663Z,17.40
2022-09-18T05:27:27.143Z,16.90
2022-09-18T05:28:26.644Z,17.30
2022-09-18T05:29:26.647Z,17.00
2022-09-18T05:30:26.615Z,16.90
2022-09-18T05:31:26.693Z,17.10
2022-09-18T05:32:26.598Z,17.20
2022-09-18T05:33:26.598Z,17.00
2022-09-18T05:34:26.565Z,17.30
2022-09-18T05:35:26.555Z,17.50
2022-09-18T05:36:26.546Z,16.80
2022-09-18T05:37:26.535Z,16.70
2022-09-18T05:38:26.545Z,16.50
2022-09-18T05:39:26.492Z,17.50
2022-09-18T05:40:26.518Z,17.00
2022-09-18T05:41:26.475Z,16.70
2022-09-18T05:42:26.463Z,17.80
2022-09-18T05:43:26.477Z,17.00
2022-09-18T05:44:26.440Z,17.70
2022-09-18T05:45:26.426Z,17.30
2022-09-18T05:46:26.543Z,17.80
2022-09-18T05:47:26.423Z,17.50
2022-09-18T05:48:26.413Z,17.80
2022-09-18T05:49:26.377Z,18.00
2022-09-18T05:50:26.357Z,17.20
2022-09-18T05:51:26.373Z,17.20
2022-09-18T05:52:26.344Z,18.00
2022-09-18T05:53:26.306Z,17.40
2022-09-18T05:54:26.354Z,17.40
2022-09-18T05:55:28.763Z,17.30
2022-09-18T05:56:27.299Z,17.70
2022-09-18T05:57:26.265Z,17.40
2022-09-18T05:58:26.256Z,18.00
2022-09-18T05:59:26.236Z,17.50
2022-09-18T06:00:26.245Z,17.50
2022-09-18T06:01:26.384Z,17.40
2022-09-18T06:02:26.198Z,17.50
2022-09-18T06:03:26.318Z,17.00
2022-09-18T06:04:26.175Z,17.60
2022-09-18T06:05:26.185Z,17.90
2022-09-18T06:06:26.170Z,16.70
2022-09-18T06:07:26.137Z,16.90
2022-09-18T06:08:26.128Z,17.10
2022-09-18T06:09:26.127Z,17.00
2022-09-18T06:10:26.095Z,17.50
2022-09-18T06:11:26.096Z,17.50
2022-09-18T06:12:26.068Z,18.40
2022-09-18T06:13:26.059Z,17.50
2022-09-18T06:14:26.055Z,17.60
2022-09-18T06:15:26.039Z,17.50
2022-09-18T06:16:26.065Z,17.00
2022-09-18T06:17:26.025Z,17.40
2022-09-18T06:18:26.037Z,17.20
2022-09-18T06:19:25.978Z,17.60
2022-09-18T06:20:25.994Z,17.30
2022-09-18T06:21:25.973Z,17.50
2022-09-18T06:22:25.940Z,17.40
2022-09-18T06:23:25.948Z,17.70
2022-09-18T06:24:25.967Z,17.40
2022-09-18T06:25:25.906Z,18.00
2022-09-18T06:26:25.877Z,17.70
2022-09-18T06:27:25.908Z,17.20
2022-09-18T06:28:25.877Z,17.80
2022-09-18T06:29:25.868Z,18.00
2022-09-18T06:30:25.848Z,17.80
2022-09-18T06:31:25.989Z,17.60
2022-09-18T06:32:25.826Z,17.20
2022-09-18T06:33:25.826Z,17.70
2022-09-18T06:34:25.777Z,17.50
2022-09-18T06:35:25.766Z,17.70
2022-09-18T06:36:25.861Z,17.50
2022-09-18T06:37:25.754Z,17.80
2022-09-18T06:38:25.727Z,17.20
2022-09-18T06:39:25.726Z,17.40
2022-09-18T06:40:25.799Z,17.30
2022-09-18T06:41:25.720Z,16.60
2022-09-18T06:42:25.717Z,17.20
2022-09-18T06:43:25.687Z,17.00
2022-09-18T06:44:25.658Z,17.30
2022-09-18T06:45:25.657Z,17.00
2022-09-18T06:46:32.729Z,17.70
2022-09-18T06:47:25.611Z,16.60
2022-09-18T06:48:25.606Z,16.50
2022-09-18T06:49:25.576Z,17.10
2022-09-18T06:50:25.565Z,16.80
2022-09-18T06:51:25.555Z,16.50
2022-09-18T06:52:25.549Z,17.30
2022-09-18T06:53:25.527Z,16.70
2022-09-18T06:54:25.524Z,16.90
2022-09-18T06:55:25.509Z,17.40
2022-09-18T06:56:25.539Z,16.40
2022-09-18T06:57:25.489Z,16.50
2022-09-18T06:58:25.476Z,16.40
2022-09-18T06:59:25.468Z,16.70
2022-09-18T07:00:25.535Z,16.10
2022-09-18T07:01:25.476Z,16.40
2022-09-18T07:02:25.446Z,16.40
2022-09-18T07:03:25.397Z,15.90
2022-09-18T07:04:25.457Z,16.50
2022-09-18T07:05:25.378Z,16.10
2022-09-18T07:06:25.358Z,16.60
2022-09-18T07:07:25.357Z,16.10
2022-09-18T07:08:25.335Z,15.20
2022-09-18T07:09:25.327Z,16.70
2022-09-18T07:10:25.424Z,15.90
2022-09-18T07:11:25.310Z,15.70
2022-09-18T07:12:25.279Z,15.90
2022-09-18T07:13:25.269Z,16.20
2022-09-18T07:14:25.260Z,15.90
2022-09-18T07:15:25.251Z,15.80
2022-09-18T07:16:25.290Z,16.80
2022-09-18T07:17:26.567Z,15.70
2022-09-18T07:18:25.215Z,15.20
2022-09-18T07:19:25.198Z,15.70
2022-09-18T07:20:25.231Z,15.60
2022-09-18T07:21:25.176Z,15.10
2022-09-18T07:22:25.157Z,15.70
2022-09-18T07:23:25.148Z,15.40
2022-09-18T07:24:25.178Z,16.30
2022-09-18T07:25:25.120Z,14.80
2022-09-18T07:26:25.108Z,15.00
2022-09-18T07:27:25.090Z,14.60
2022-09-18T07:28:25.091Z,14.40
2022-09-18T07:29:25.079Z,14.30
2022-09-18T07:30:25.092Z,13.90
2022-09-18T07:31:25.065Z,14.60
2022-09-18T07:32:25.051Z,14.90
2022-09-18T07:33:25.022Z,14.60
2022-09-18T07:34:25.030Z,14.00
2022-09-18T07:35:24.979Z,14.00
2022-09-18T07:36:24.978Z,14.20
2022-09-18T07:37:24.959Z,14.40
2022-09-18T07:38:24.952Z,14.10
2022-09-18T07:39:24.929Z,14.00
2022-09-18T07:40:25.030Z,14.00
2022-09-18T07:41:24.920Z,14.30
2022-09-18T07:42:24.899Z,14.30
2022-09-18T07:43:24.900Z,14.30
2022-09-18T07:44:24.892Z,13.50
2022-09-18T07:45:24.862Z,14.00
2022-09-18T07:46:24.990Z,14.10
2022-09-18T07:47:24.842Z,14.20
2022-09-18T07:48:24.841Z,14.30
2022-09-18T07:49:24.920Z,13.70
2022-09-18T07:50:24.832Z,14.20
2022-09-18T07:51:26.469Z,14.30
2022-09-18T07:52:24.783Z,14.00
2022-09-18T07:53:24.770Z,14.90
2022-09-18T07:54:24.764Z,14.40
2022-09-18T07:55:24.755Z,14.10
2022-09-18T07:56:24.721Z,14.30
2022-09-18T07:57:24.700Z,14.00
2022-09-18T07:58:24.700Z,14.00
2022-09-18T07:59:24.693Z,13.90
2022-09-18T08:00:24.673Z,13.90
2022-09-18T08:01:24.709Z,14.00
2022-09-18T08:02:24.724Z,13.80
2022-09-18T08:03:24.632Z,14.00
2022-09-18T08:04:24.622Z,13.40
2022-09-18T08:05:24.622Z,13.60
2022-09-18T08:06:24.612Z,13.10
2022-09-18T08:07:24.581Z,13.20
2022-09-18T08:08:24.571Z,13.90
2022-09-18T08:09:24.620Z,13.50
2022-09-18T08:10:24.541Z,13.50
2022-09-18T08:11:24.534Z,13.60
2022-09-18T08:12:24.511Z,13.60
2022-09-18T08:13:24.501Z,13.70
2022-09-18T08:14:28.737Z,13.00
2022-09-18T08:15:24.473Z,13.40
2022-09-18T08:16:24.527Z,13.40
2022-09-18T08:17:24.474Z,13.00
2022-09-18T08:18:24.443Z,13.30
2022-09-18T08:19:24.424Z,13.20
2022-09-18T08:20:24.424Z,14.00
2022-09-18T08:21:24.483Z,13.70
2022-09-18T08:22:24.393Z,13.30
2022-09-18T08:23:24.381Z,13.60
2022-09-18T08:24:24.382Z,13.60
2022-09-18T08:25:24.342Z,13.40
2022-09-18T08:26:24.331Z,13.00
2022-09-18T08:27:24.321Z,13.20
2022-09-18T08:28:24.323Z,12.90
2022-09-18T08:29:24.349Z,12.60
2022-09-18T08:30:24.282Z,13.60
2022-09-18T08:31:24.322Z,12.90
2022-09-18T08:32:24.254Z,13.10
2022-09-18T08:33:24.235Z,12.40
2022-09-18T08:34:24.224Z,14.00
2022-09-18T08:35:24.212Z,12.40
2022-09-18T08:36:24.205Z,12.50
2022-09-18T08:37:24.273Z,12.40
2022-09-18T08:38:24.162Z,13.00
2022-09-18T08:39:24.163Z,12.30
2022-09-18T08:40:24.297Z,12.40
2022-09-18T08:41:24.145Z,12.50
2022-09-18T08:42:26.200Z,12.40
2022-09-18T08:43:24.125Z,12.70
2022-09-18T08:44:24.105Z,12.30
2022-09-18T08:45:24.162Z,12.70
2022-09-18T08:46:24.180Z,12.50
2022-09-18T08:47:24.044Z,12.00
2022-09-18T08:48:24.034Z,12.20
2022-09-18T08:49:24.015Z,12.20
2022-09-18T08:50:24.012Z,11.80
2022-09-18T08:51:23.994Z,12.20
2022-09-18T08:52:23.987Z,12.10
2022-09-18T08:53:23.965Z,11.80
2022-09-18T08:54:23.958Z,12.00
2022-09-18T08:55:23.946Z,11.90
2022-09-18T08:56:23.948Z,12.00
2022-09-18T08:57:23.957Z,12.10
2022-09-18T08:58:23.914Z,11.50
2022-09-18T08:59:23.896Z,12.00
2022-09-18T09:00:23.885Z,12.00
2022-09-18T09:01:23.911Z,11.80
2022-09-18T09:02:25.319Z,11.90
2022-09-18T09:03:23.845Z,11.70
2022-09-18T09:04:23.826Z,12.10
2022-09-18T09:05:23.865Z,11.50
2022-09-18T09:06:23.804Z,11.50
2022-09-18T09:07:23.786Z,11.60
2022-09-18T09:08:23.788Z,11.70
2022-09-18T09:09:23.763Z,11.50
2022-09-18T09:10:23.756Z,12.10
2022-09-18T09:11:23.737Z,12.00
2022-09-18T09:12:23.727Z,11.70
2022-09-18T09:13:23.727Z,11.90
2022-09-18T09:14:34.447Z,12.20
2022-09-18T09:15:24.688Z,12.10
2022-09-18T09:16:23.719Z,12.00
2022-09-18T09:17:23.657Z,11.70
2022-09-18T09:18:23.644Z,11.80
2022-09-18T09:19:23.646Z,12.00
2022-09-18T09:20:23.617Z,11.70
2022-09-18T09:21:23.596Z,11.80
2022-09-18T09:22:23.666Z,11.80
2022-09-18T09:23:23.574Z,11.50
2022-09-18T09:24:23.633Z,11.80
2022-09-18T09:25:23.587Z,12.10
2022-09-18T09:26:23.540Z,11.30
2022-09-18T09:27:23.529Z,11.90
2022-09-18T09:28:23.519Z,11.50
2022-09-18T09:29:23.498Z,11.40
2022-09-18T09:30:23.528Z,11.50
2022-09-18T09:31:23.502Z,10.90
2022-09-18T09:32:23.462Z,11.80
2022-09-18T09:33:23.449Z,11.10
2022-09-18T09:34:23.438Z,11.20
2022-09-18T09:35:23.428Z,11.10
2022-09-18T09:36:23.407Z,11.20
2022-09-18T09:37:23.409Z,11.00
2022-09-18T09:38:23.390Z,11.30
2022-09-18T09:39:23.380Z,10.70
2022-09-18T09:40:23.456Z,11.10
2022-09-18T09:41:23.360Z,10.80
2022-09-18T09:42:23.340Z,11.10
2022-09-18T09:43:23.388Z,10.90
2022-09-18T09:44:23.318Z,10.70
2022-09-18T09:45:23.299Z,10.70
2022-09-18T09:46:23.342Z,11.00
2022-09-18T09:47:23.267Z,10.90
2022-09-18T09:48:23.301Z,11.20
2022-09-18T09:49:23.248Z,10.90
2022-09-18T09:50:23.238Z,11.00
2022-09-18T09:51:23.219Z,10.60
2022-09-18T09:52:23.222Z,10.70
2022-09-18T09:53:23.208Z,10.80
2022-09-18T09:54:23.183Z,10.80
2022-09-18T09:55:23.170Z,10.80
2022-09-18T09:56:23.171Z,10.10
2022-09-18T09:57:23.141Z,10.80
2022-09-18T09:58:23.138Z,10.40
2022-09-18T09:59:23.118Z,10.60
2022-09-18T10:00:23.099Z,10.70
2022-09-18T10:01:23.123Z,10.70
2022-09-18T10:02:23.133Z,10.50
2022-09-18T10:03:23.072Z,10.50
2022-09-18T10:04:23.049Z,10.60
2022-09-18T10:05:23.030Z,10.80
2022-09-18T10:06:23.020Z,10.40
2022-09-18T10:07:23.044Z,10.20
2022-09-18T10:08:23.010Z,10.30
2022-09-18T10:09:22.990Z,9.90
2022-09-18T10:10:22.979Z,9.70
2022-09-18T10:11:22.962Z,9.80
2022-09-18T10:12:22.970Z,9.70
2022-09-18T10:13:22.941Z,10.70
2022-09-18T10:14:22.929Z,10.10
2022-09-18T10:15:22.900Z,9.80
2022-09-18T10:16:22.919Z,10.10
2022-09-18T10:17:22.871Z,10.60
2022-09-18T10:18:22.933Z,9.60
2022-09-18T10:19:22.862Z,10.00
2022-09-18T10:20:22.840Z,10.10
2022-09-18T10:21:22.822Z,9.70
2022-09-18T10:22:22.815Z,10.30
2022-09-18T10:23:25.462Z,9.70
2022-09-18T10:24:22.822Z,9.60
2022-09-18T10:25:22.783Z,9.30
2022-09-18T10:26:22.774Z,9.40
2022-09-18T10:27:22.760Z,9.90
2022-09-18T10:28:23.291Z,9.60
2022-09-18T10:29:22.750Z,10.20
2022-09-18T10:30:22.732Z,9.80
2022-09-18T10:31:22.801Z,10.20
2022-09-18T10:32:22.694Z,9.90
2022-09-18T10:33:22.672Z,9.80
2022-09-18T10:34:22.653Z,9.70
2022-09-18T10:35:22.664Z,10.20
2022-09-18T10:36:22.642Z,9.80
2022-09-18T10:37:22.643Z,9.50
2022-09-18T10:38:22.603Z,9.30
2022-09-18T10:39:22.605Z,9.20
2022-09-18T10:40:22.674Z,9.40
2022-09-18T10:41:22.575Z,9.30
2022-09-18T10:42:22.566Z,9.50
2022-09-18T10:43:22.585Z,9.30
2022-09-18T10:44:22.544Z,8.90
2022-09-18T10:45:22.514Z,8.90
2022-09-18T10:46:22.614Z,8.50
2022-09-18T10:47:22.506Z,8.80
2022-09-18T10:48:22.491Z,8.50
2022-09-18T10:49:22.502Z,8.90
2022-09-18T10:50:22.456Z,8.70
2022-09-18T10:51:22.437Z,8.70
2022-09-18T10:52:22.446Z,9.20
2022-09-18T10:53:22.414Z,9.00
2022-09-18T10:54:22.406Z,9.40
2022-09-18T10:55:22.386Z,9.30
2022-09-18T10:56:22.375Z,9.50
2022-09-18T10:57:22.474Z,10.90
2022-09-18T10:58:22.375Z,10.80
2022-09-18T10:59:22.336Z,10.90
2022-09-18T11:00:22.453Z,11.10
2022-09-18T11:01:22.382Z,11.00
2022-09-18T11:02:22.343Z,11.50
2022-09-18T11:03:22.349Z,11.40
2022-09-18T11:04:22.276Z,11.60
2022-09-18T11:05:22.287Z,11.70
2022-09-18T11:06:22.249Z,11.90
2022-09-18T11:07:25.662Z,11.80
2022-09-18T11:08:22.231Z,11.60
2022-09-18T11:09:22.223Z,11.60
2022-09-18T11:10:22.201Z,11.30
2022-09-18T11:11:22.219Z,10.90
2022-09-18T11:12:22.218Z,10.90
2022-09-18T11:13:22.156Z,10.30
2022-09-18T11:14:22.173Z,10.30
2022-09-18T11:15:22.137Z,10.30
2022-09-18T11:16:22.160Z,10.10
2022-09-18T11:17:22.096Z,10.10
2022-09-18T11:18:22.087Z,10.70
2022-09-18T11:19:22.088Z,10.20
2022-09-18T11:20:22.100Z,10.30
2022-09-18T11:21:22.086Z,10.70
2022-09-18T11:22:22.050Z,10.90
2022-09-18T11:23:22.039Z,11.30
2022-09-18T11:24:22.027Z,11.30
2022-09-18T11:25:22.047Z,11.80
2022-09-18T11:26:22.022Z,11.70
2022-09-18T11:27:21.982Z,11.40
2022-09-18T11:28:21.958Z,11.90
2022-09-18T11:29:22.017Z,11.80
2022-09-18T11:30:21.951Z,11.90
2022-09-18T11:31:21.973Z,11.90
2022-09-18T11:32:21.908Z,11.80
2022-09-18T11:33:21.949Z,12.40
2022-09-18T11:34:21.896Z,12.00
2022-09-18T11:35:21.890Z,11.70
2022-09-18T11:36:21.871Z,12.00
2022-09-18T11:37:21.869Z,11.10
2022-09-18T11:38:21.843Z,11.70
2022-09-18T11:39:24.569Z,11.50
2022-09-18T11:40:21.839Z,11.10
2022-09-18T11:41:21.800Z,11.40
2022-09-18T11:42:21.800Z,11.00
2022-09-18T11:43:21.769Z,11.40
2022-09-18T11:44:21.749Z,11.30
2022-09-18T11:45:21.729Z,11.20
2022-09-18T11:46:21.845Z,11.10
2022-09-18T11:47:21.793Z,10.40
2022-09-18T11:48:21.728Z,11.30
2022-09-18T11:49:21.729Z,10.90
2022-09-18T11:50:21.671Z,11.00
2022-09-18T11:51:21.692Z,10.70
2022-09-18T11:52:21.694Z,11.00
2022-09-18T11:53:21.673Z,10.80
2022-09-18T11:54:21.622Z,11.20
2022-09-18T11:55:21.600Z,11.80
2022-09-18T11:56:21.590Z,11.50
2022-09-18T11:57:21.581Z,11.20
2022-09-18T11:58:21.571Z,11.10
2022-09-18T11:59:21.553Z,10.90
2022-09-18T12:00:21.550Z,11.90
2022-09-18T12:01:21.566Z,11.10
2022-09-18T12:02:21.623Z,11.40
2022-09-18T12:03:21.646Z,11.30
2022-09-18T12:04:21.482Z,10.80
2022-09-18T12:05:21.484Z,10.80
2022-09-18T12:06:21.472Z,11.10
2022-09-18T12:07:41.094Z,11.10
2022-09-18T12:08:20.075Z,11.10
2022-09-18T12:09:20.073Z,10.60
2022-09-18T12:10:20.051Z,10.90
2022-09-18T12:11:20.189Z,10.60
2022-09-18T12:12:20.024Z,10.60
2022-09-18T12:13:20.009Z,10.60
2022-09-18T12:14:20.022Z,10.40
2022-09-18T12:15:19.986Z,10.60
2022-09-18T12:16:20.055Z,10.80
2022-09-18T12:17:19.980Z,10.50
2022-09-18T12:18:19.968Z,10.20
2022-09-18T12:19:19.929Z,9.90
2022-09-18T12:20:19.936Z,9.90
2022-09-18T12:21:19.907Z,9.70
2022-09-18T12:22:19.884Z,9.90
2022-09-18T12:23:19.874Z,9.30
2022-09-18T12:24:19.853Z,9.60
2022-09-18T12:25:19.897Z,9.50
2022-09-18T12:26:19.821Z,9.00
2022-09-18T12:27:19.947Z,9.00
2022-09-18T12:28:19.808Z,9.00
2022-09-18T12:29:19.780Z,9.00
2022-09-18T12:30:19.844Z,8.80
2022-09-18T12:31:19.859Z,8.70
2022-09-18T12:32:19.757Z,8.50
2022-09-18T12:33:19.747Z,8.60
2022-09-18T12:34:19.728Z,8.70
2022-09-18T12:35:19.726Z,8.60
2022-09-18T12:36:19.697Z,8.50
2022-09-18T12:37:19.685Z,8.70
2022-09-18T12:38:19.673Z,9.30
2022-09-18T12:39:20.315Z,10.30
2022-09-18T12:40:20.335Z,11.10
2022-09-18T12:41:20.292Z,11.50
2022-09-18T12:42:20.292Z,12.70
2022-09-18T12:43:20.261Z,13.30
2022-09-18T12:44:20.299Z,13.40
2022-09-18T12:45:20.249Z,14.30
2022-09-18T12:46:20.252Z,14.60
2022-09-18T12:47:27.225Z,14.70
2022-09-18T12:48:20.211Z,15.40
2022-09-18T12:49:20.191Z,15.60
2022-09-18T12:50:20.173Z,15.50
2022-09-18T12:51:20.161Z,15.70
2022-09-18T12:52:20.161Z,15.70
2022-09-18T12:53:20.140Z,16.10
2022-09-18T12:54:20.149Z,17.00